Terminal Aerodrome Forecast
Issued by NWS

Home | Current Version | Previous Version | Text Only | Print | Product List | Glossary On
Versions: 1 2 3 4 5 6 7 8 9 10 11 12 13 14 15 16 17 18 19 20 21
712
FTUS43 KSGF 041726
TAFBBG
TAF
KBBG 041726Z 0418/0518 VRB03KT 5SM BR OVC005
     FM042000 30005KT P6SM OVC010
     FM042300 31006KT P6SM SCT025
     FM050500 00000KT 4SM BR SKC
     FM050700 00000KT 1SM BR SCT010
      TEMPO 0509/0513 1/2SM FG BKN010
     FM051500 12004KT P6SM SCT035=

USA.gov is the U.S. government's official web portal to all federal, state and local government web resources and services.